This is the latest recevied weather packets stored in our database for station/object KD4EED. If no packets are shown the sender has not sent any weather packets the latest 10 day(s).
| Time | Temp. | Humidity | Pressure | Rain* | Wind** | Luminosity | Snow |
|---|---|---|---|---|---|---|---|
| 1777932487 | 21.11° C | 57% | 1012.7 hPa | - | - | 840 W/m² | - |
| 1777932184 | 21.11° C | 58% | 1013 hPa | - | - | 322 W/m² | - |
| 1777931882 | 20.56° C | 57% | 1012.9 hPa | - | - | 750 W/m² | - |
| 1777931578 | 20.56° C | 59% | 1013.3 hPa | - | - | 434 W/m² | - |
| 1777931274 | 20.56° C | 57% | 1013.3 hPa | - | - | 473 W/m² | - |
| 1777930970 | 21.11° C | 57% | 1013.4 hPa | - | - | 302 W/m² | - |
| 1777930667 | 21.11° C | 56% | 1013.1 hPa | - | - | 524 W/m² | - |
| 1777930363 | 21.11° C | 55% | 1013.5 hPa | - | - | 413 W/m² | - |
| 1777930061 | 21.11° C | 56% | 1013.5 hPa | - | - | 654 W/m² | - |
| 1777929757 | 21.11° C | 55% | 1013.4 hPa | - | - | 700 W/m² | - |
| 1777929455 | 21.67° C | 53% | 1013.4 hPa | - | - | 586 W/m² | - |
| 1777929150 | 21.67° C | 52% | 1013.4 hPa | - | - | 525 W/m² | - |
| 1777928848 | 21.67° C | 51% | 1013.4 hPa | - | - | 681 W/m² | - |
| 1777928545 | 21.11° C | 53% | 1013.6 hPa | - | - | 533 W/m² | - |
| 1777928242 | 21.11° C | 52% | 1013.6 hPa | - | - | 805 W/m² | - |
| 1777927940 | 21.11° C | 54% | 1013.4 hPa | - | - | 513 W/m² | - |
| 1777927638 | 20.56° C | 53% | 1013.5 hPa | - | - | 451 W/m² | - |
| 1777927336 | 21.11° C | 51% | 1013.4 hPa | - | - | 454 W/m² | - |
| 1777927035 | 21.11° C | 49% | 1013.3 hPa | - | - | 472 W/m² | - |
| 1777926732 | 21.67° C | 50% | 1013.4 hPa | - | - | 612 W/m² | - |
| 1777926432 | 21.67° C | 48% | 1013.1 hPa | - | - | 964 W/m² | - |
| 1777926129 | 21.67° C | 50% | 1013.1 hPa | - | - | 843 W/m² | - |
| 1777925826 | 21.11° C | 49% | 1013.1 hPa | - | - | 1016 W/m² | - |
| 1777925524 | 21.67° C | 48% | 1013.1 hPa | - | - | 696 W/m² | - |
| 1777925221 | 21.67° C | 50% | 1013.3 hPa | - | - | 634 W/m² | - |
* Rain since midnight (hover to see other rain measurements)
** Current wind speed in m/s (hover to see current wind gust speed)